x

Nantucket Sound (44020) Wave Buoy

4:50pm - Fri 18th Aug 2017 All times are EDT. -4 hours from GMT.

  • Sig Wave height 2.0ft
  • Swell Direction
  • Peak Period 4s
  • Average Period 3s
  • Wind
    18mph, 20mph gusts
  • Sea Temp 71°f
  • Air Temp 72°f
  • Sea Pressure 1011.7mb
  • Nantucket Sound
  • Nantucket Sound

More Historic Weather Station data

Upgrade to MSW Pro to gain access to the past 30 days of data for over 8000 Wavebouys and Weather Stations around the globe.

Join

Comparision Forecast

View Surf forecast
   
Fri 08/18 4:50pm 2ft 4s 3s 18 20 mph 1011.7mb 71f 72f
3:50pm 2ft 3s 3s 20 25 mph 1012.1mb 70f 72f
2:50pm 2ft 3s 3s 20 25 mph 1012.6mb 70f 72f
1:50pm 1.6ft 3s 3s 20 22 mph 1013.3mb 70f 72f
12:50pm 1.3ft 3s 3s 18 20 mph 1014.3mb 71f 71f
11:50am 1.3ft 3s 3s 18 20 mph 1014.6mb 71f 71f
10:50am 1.3ft 3s 3s 16 18 mph 1014.7mb 71f 72f
9:50am 1.3ft 3s 3s 13 18 mph 1015mb 71f 71f
8:50am 1ft 3s 3s 13 18 mph 1015.2mb 71f 70f
7:50am 1ft 3s 3s 13 16 mph 1015.5mb 71f 70f
6:50am 0.7ft  -  3s 13 16 mph 1015.2mb 71f 69f
5:50am 0.7ft  -  3s 13 13 mph 1015.3mb 71f 69f
4:50am 0.3ft  -  3s 11 13 mph 1015.2mb 71f 69f
3:50am 0.7ft  -  3s 9 11 mph 1015.6mb 71f 69f
2:50am 0.7ft  -  4s 9 11 mph 1015.9mb 70f 68f
1:50am 0.7ft  -  3s 7 9 mph 1016mb 69f 69f
12:50am 0.7ft  -  3s 9 11 mph 1016.6mb 69f 69f
Thu 08/17 11:50pm 0.7ft  -  3s 11 13 mph 1016.6mb 70f 68f
10:50pm 0.7ft  -  3s 11 13 mph 1016.5mb 71f 69f
8:50pm 1ft 8s 3s 11 13 mph 1016.3mb 72f 68f
7:50pm 1ft 8s 3s 11 13 mph 1015.8mb 72f 68f
6:50pm 1ft 4s 3s 9 11 mph 1015.8mb 72f 69f
5:50pm 1ft 4s 4s 13 16 mph 1015.8mb 72f 69f
4:50pm 0.7ft  -  3s 13 13 mph 1016.1mb 72f 69f
3:50pm 0.7ft  -  4s 11 13 mph 1016.3mb 72f 70f
2:50pm 1ft 4s 4s 7 9 mph 1016.8mb 72f 71f
1:50pm 1ft 5s 4s 4 4 mph 1017.3mb 71f 70f
12:50pm 1ft 4s 4s 2 2 mph 1017.6mb 71f 69f
11:50am 0.7ft  -  4s  -  0 mph 1017.8mb 71f 69f
10:50am 1ft 5s 4s 4 4 mph 1018.1mb 71f 69f
9:50am 0.7ft  -  4s 7 9 mph 1017.9mb 71f 69f
8:50am 1ft 5s 4s 4 7 mph 1017.8mb 71f 69f
7:50am 1ft 11s 3s 7 9 mph 1017.7mb 71f 69f
6:50am 1.3ft 3s 3s 9 11 mph 1017.2mb 71f 69f
5:50am 1.3ft 3s 3s 13 16 mph 1016.6mb 71f 69f
4:50am 1.6ft 3s 3s 16 18 mph 1016.1mb 71f 69f
3:50am 1.3ft 3s 3s 16 18 mph 1015.8mb 71f 71f
2:50am 0.7ft  -  4s 13 18 mph 1015.6mb 70f 71f
1:50am 0.7ft  -  4s 2 4 mph 1015.9mb 70f 70f
12:50am 0.7ft  -  4s 4 4 mph 1015.9mb 69f 68f
Wed 08/16 11:50pm 0.7ft  -  4s 2 4 mph 1015.9mb 70f 70f
10:50pm 1ft 14s 4s 9 9 mph 1015.6mb 70f 71f
9:50pm 1ft 13s 4s 9 11 mph 1015.1mb 71f 72f
8:50pm 1ft 14s 4s 11 11 mph 1014.8mb 72f 72f
7:50pm 1.3ft 14s 4s 9 11 mph 1014.2mb 72f 71f
6:50pm 1.6ft 13s 4s 2 2 mph 1013.6mb 72f 72f
5:50pm 1.6ft 12s 4s 4 4 mph 1013.1mb 72f 72f
4:50pm 1.3ft 3s 4s 7 9 mph 1012.9mb 72f 72f
3:50pm 1.3ft 3s 3s 4 7 mph 1013.1mb 72f 74f
2:50pm 2ft 3s 3s 7 9 mph 1013.2mb 72f 73f
1:50pm 2ft 3s 3s 13 16 mph 1013.3mb 71f 73f
12:50pm 1.6ft 4s 3s 13 16 mph 1012.7mb 70f 73f
11:50am 1.6ft 3s 3s 13 16 mph 1012.5mb 69f 72f
10:50am 1.3ft 5s 4s 16 18 mph 1012.4mb 70f 73f
9:50am 1ft 4s 4s 7 7 mph 1012.3mb 70f 72f
8:50am 1ft 3s 4s 13 16 mph 1012.1mb 71f 71f
7:50am 1.3ft 3s 4s 9 9 mph 1012.2mb 71f 71f
6:50am 1.3ft 3s 3s 11 16 mph 1012mb 71f 70f
5:50am 1.3ft 12s 4s 16 18 mph 1011.9mb 71f 70f
4:50am 1ft 11s 4s 9 11 mph 1012mb 71f 69f
3:50am 0.7ft  -  4s 9 9 mph 1012mb 71f 69f
2:50am 0.7ft  -  4s 7 9 mph 1012.2mb 71f 68f
1:50am 0.7ft  -  4s 11 11 mph 1012.2mb 70f 69f
12:50am 0.7ft  -  5s 9 9 mph 1012.3mb 69f 69f
Tue 08/15 11:50pm 0.7ft  -  5s 9 9 mph 1011.8mb 69f 69f
10:50pm 0.7ft  -  5s 9 11 mph 1012.1mb 69f 68f
9:50pm 0.7ft  -  4s 9 9 mph 1012.8mb 70f 68f
8:50pm 0.7ft  -  4s 7 9 mph 1013.2mb 71f 68f
7:50pm 1ft 6s 4s 9 9 mph 1013.3mb 71f 68f
6:50pm 1ft 6s 4s 9 11 mph 1013.5mb 71f 68f
5:50pm 1.3ft 10s 3s 11 13 mph 1013.2mb 71f 70f
4:50pm 1ft 5s 4s 11 16 mph 1013.2mb 71f 69f
3:50pm 0.7ft  -  4s 11 13 mph 1013.3mb 71f 70f
2:50pm 0.7ft  -  4s 9 9 mph 1013.5mb 71f 70f
1:50pm 0.7ft  -  4s 7 9 mph 1013.6mb 71f 70f
12:50pm 0.7ft  -  4s 4 7 mph 1013.9mb 71f 71f
11:50am 0.7ft  -  4s 2 4 mph 1014.1mb 70f 73f
10:50am 0.7ft  -  4s 4 7 mph 1014.4mb 69f 71f
9:50am 0.7ft  -  4s 4 7 mph 1014.5mb 69f 70f
8:50am 0.7ft  -  4s 4 7 mph 1014.6mb 70f 70f
7:50am 0.7ft  -  4s 4 4 mph 1014.8mb 71f 70f
6:50am 0.7ft  -  4s 4 4 mph 1014.5mb 71f 69f
5:50am 1ft 7s 5s 4 7 mph 1014.3mb 71f 70f
4:50am 0.7ft  -  4s 7 9 mph 1014.5mb 71f 70f
3:50am 0.7ft  -  4s 4 7 mph 1014.3mb 71f 69f
2:50am 0.7ft  -  4s 7 9 mph 1014.4mb 71f 69f
1:50am 0.7ft  -  3s 9 9 mph 1014.7mb 71f 69f
12:50am 0.7ft  -  3s 4 7 mph 1015mb 70f 69f
Mon 08/14 11:50pm 0.7ft  -  4s 7 9 mph 1015.3mb 70f 69f
10:50pm 0.7ft  -  4s 9 11 mph 1015.4mb 69f 68f